^^
Station Historical Data
Daily Summary for May 19, 2017 Units:  Metric    English   Both
« Previous Day
Next Day »
Daily Weekly Monthly Yearly Custom
  High: Low: Average:
Temperature: 29.3 °C 13.6 °C 20.6 °C
Dew Point: 0 °C -4.1 °C -2.7 °C
Humidity: 29% 13% 21%
Wind Speed: 13km/h 0km/h 2.7km/h
Wind Gust: 24.1km/h - -
Wind- - North
Pressure: 1020.9 hPa 1017.2 hPa -
Precipitation: 0 mm    
Historical Graphs
 
 
Tabular Data for May 19, 2017
Time Temperature Dew Point Pressure Wind Wind Speed Wind Gust Humidity Rainfall Rate (Hourly) solar Conditions
00:03 19.3 °C -3.6 °C 1017.2 hPa NNW 1.4 km/h 8 km/h 21% 0 mm 0.0 W/m2
00:08 19.5 °C -4.1 °C 1017.5 hPa Calm   1.6 km/h 20% 0 mm 0.0 W/m2
00:18 19.6 °C -4 °C 1017.5 hPa Calm     20% 0 mm 0.0 W/m2
00:23 19.5 °C -4.1 °C 1017.5 hPa Calm   6.4 km/h 20% 0 mm 0.0 W/m2
00:28 19.4 °C -4.1 °C 1017.5 hPa NNW 7.9 km/h 11.3 km/h 20% 0 mm 0.0 W/m2
00:33 19.6 °C -4 °C 1017.5 hPa NNW 3.2 km/h 11.3 km/h 20% 0 mm 0.0 W/m2
00:43 20.2 °C -3.5 °C 1017.5 hPa North 3.2 km/h 22.5 km/h 20% 0 mm 0.0 W/m2
00:53 20.1 °C -3.6 °C 1017.5 hPa Calm   17.7 km/h 20% 0 mm 0.0 W/m2
00:58 20.1 °C -3.6 °C 1017.5 hPa North 1.4 km/h 12.9 km/h 20% 0 mm 0.0 W/m2
01:08 19.9 °C -3.7 °C 1017.5 hPa North 11.1 km/h 19.3 km/h 20% 0 mm 0.0 W/m2
01:24 19.7 °C -3.9 °C 1017.5 hPa North 9.7 km/h 12.9 km/h 20% 0 mm 0.0 W/m2
01:33 19.7 °C -3.9 °C 1017.5 hPa Calm   14.5 km/h 20% 0 mm 0.0 W/m2
01:38 19.7 °C -3.9 °C 1017.5 hPa North 3.2 km/h 11.3 km/h 20% 0 mm 0.0 W/m2
02:04 19.8 °C -3.8 °C 1017.5 hPa North 1.4 km/h 17.7 km/h 20% 0 mm 0.0 W/m2
02:14 19.6 °C -3.3 °C 1017.5 hPa North 7.9 km/h 11.3 km/h 21% 0 mm 0.0 W/m2
02:44 19.1 °C -3.1 °C 1017.5 hPa North 11.1 km/h 11.3 km/h 22% 0 mm 0.0 W/m2
03:25 19 °C -3.2 °C 1017.8 hPa North 6.4 km/h 11.3 km/h 22% 0 mm 0.0 W/m2
03:30 18.9 °C -3.3 °C 1017.8 hPa North 7.9 km/h 12.9 km/h 22% 0 mm 0.0 W/m2
03:35 18.8 °C -3.4 °C 1017.8 hPa North 3.2 km/h 6.4 km/h 22% 0 mm 0.0 W/m2
03:45 18.4 °C -3.1 °C 1017.8 hPa Calm   9.7 km/h 23% 0 mm 0.0 W/m2
03:50 18.4 °C -3.1 °C 1017.8 hPa North 3.2 km/h 12.9 km/h 23% 0 mm 0.0 W/m2
03:55 18.6 °C -3.5 °C 1017.8 hPa North 3.2 km/h 14.5 km/h 22% 0 mm 0.0 W/m2
04:05 18.7 °C -3.5 °C 1018.2 hPa North 7.9 km/h 9.7 km/h 22% 0 mm 0.0 W/m2
04:10 18.5 °C -3 °C 1018.2 hPa North 3.2 km/h 12.9 km/h 23% 0 mm 0.0 W/m2
04:15 18.4 °C -3.1 °C 1018.2 hPa North 1.4 km/h 11.3 km/h 23% 0 mm 0.0 W/m2
04:20 18.4 °C -3.1 °C 1018.2 hPa North 9.7 km/h 12.9 km/h 23% 0 mm 0.0 W/m2
04:25 18.3 °C -3.2 °C 1018.2 hPa North 9.7 km/h 11.3 km/h 23% 0 mm 0.0 W/m2
04:30 18.4 °C -3.1 °C 1018.2 hPa North 3.2 km/h 11.3 km/h 23% 0 mm 0.0 W/m2
04:35 18.5 °C -3 °C 1018.5 hPa North 7.9 km/h 11.3 km/h 23% 0 mm 0.0 W/m2
04:40 18.3 °C -3.2 °C 1018.5 hPa Calm   11.3 km/h 23% 0 mm 0.0 W/m2
04:46 18.1 °C -3.4 °C 1018.5 hPa North 3.2 km/h 8 km/h 23% 0 mm 0.0 W/m2
04:56 17.4 °C -3.4 °C 1018.5 hPa Calm   1.6 km/h 24% 0 mm 0.0 W/m2
05:06 16.8 °C -3.3 °C 1018.8 hPa Calm     25% 0 mm 0.0 W/m2
05:11 16.6 °C -3.5 °C 1018.8 hPa Calm     25% 0 mm 0.0 W/m2
05:16 16.1 °C -3.9 °C 1018.8 hPa North 6.4 km/h 6.4 km/h 25% 0 mm 0.0 W/m2
05:21 15.5 °C -3.9 °C 1018.8 hPa Calm     26% 0 mm 0.0 W/m2
05:26 15.1 °C -3.8 °C 1019.2 hPa Calm     27% 0 mm 0.0 W/m2
05:37 14.2 °C -4.1 °C 1019.2 hPa Calm     28% 0 mm 0.0 W/m2
05:42 13.7 °C -4 °C 1019.2 hPa Calm     29% 0 mm 0.0 W/m2
05:52 13.6 °C -4.1 °C 1019.5 hPa North 3.2 km/h 9.7 km/h 29% 0 mm 0.0 W/m2
06:07 14.2 °C -4.1 °C 1019.5 hPa North 7.9 km/h 9.7 km/h 28% 0 mm 0.0 W/m2
06:12 14.2 °C -4.1 °C 1019.5 hPa North 1.4 km/h 9.7 km/h 28% 0 mm 0.0 W/m2
06:17 13.9 °C -3.9 °C 1019.5 hPa North 7.9 km/h 9.7 km/h 29% 0 mm 0.0 W/m2
06:23 13.8 °C -3.9 °C 1019.5 hPa North 3.2 km/h 9.7 km/h 29% 0 mm 0.0 W/m2
06:28 13.8 °C -3.9 °C 1019.9 hPa Calm   9.7 km/h 29% 0 mm 5.0 W/m2
06:37 13.7 °C -4 °C 1019.9 hPa Calm   9.7 km/h 29% 0 mm 11.0 W/m2
06:42 13.7 °C -4 °C 1019.9 hPa Calm   1.6 km/h 29% 0 mm 12.0 W/m2
06:48 13.7 °C -4 °C 1019.9 hPa North 1.4 km/h 9.7 km/h 29% 0 mm 14.0 W/m2
06:58 13.8 °C -3.9 °C 1019.9 hPa Calm   9.7 km/h 29% 0 mm 18.0 W/m2
07:08 14.2 °C -3.6 °C 1019.9 hPa Calm   8 km/h 29% 0 mm 25.0 W/m2
08:03 18.6 °C -2.4 °C 1020.5 hPa Calm     24% 0 mm 269.0 W/m2
08:23 20.1 °C -2.3 °C 1020.5 hPa Calm     22% 0 mm 316.0 W/m2
08:35 20.6 °C -1.9 °C 1020.5 hPa Calm     22% 0 mm 346.0 W/m2
08:50 21.5 °C -2.4 °C 1020.5 hPa Calm     20% 0 mm 388.0 W/m2
09:00 21.6 °C -2.3 °C 1020.9 hPa Calm   12.9 km/h 20% 0 mm 425.0 W/m2
09:10 21.9 °C -2.8 °C 1020.9 hPa Calm   17.7 km/h 19% 0 mm 452.0 W/m2
09:25 22.3 °C -2.4 °C 1020.5 hPa North 9.7 km/h 9.7 km/h 19% 0 mm 487.0 W/m2
09:40 22.4 °C -2.4 °C 1020.9 hPa North 7.9 km/h 17.7 km/h 19% 0 mm 519.0 W/m2
09:55 22.9 °C -2 °C 1020.5 hPa North 6.4 km/h 12.9 km/h 19% 0 mm 545.0 W/m2
10:16 23.6 °C -2.1 °C 1020.5 hPa North 1.4 km/h 19.3 km/h 18% 0 mm 568.0 W/m2
10:26 24.1 °C -2.5 °C 1020.5 hPa North 6.4 km/h 11.3 km/h 17% 0 mm 592.0 W/m2
10:46 24.8 °C -2.7 °C 1020.2 hPa Calm   12.9 km/h 16% 0 mm 612.0 W/m2
10:54 24.9 °C -2.7 °C 1020.2 hPa North 9.7 km/h 9.7 km/h 16% 0 mm 619.0 W/m2
14:06 29.2 °C -0.1 °C 1017.2 hPa Calm   24.1 km/h 15% 0 mm 494.0 W/m2
14:12 29.3 °C 0 °C 1017.2 hPa Calm   1.6 km/h 15% 0 mm 466.0 W/m2
14:31 29.1 °C -1.1 °C 1017.5 hPa NNW 13 km/h 24.1 km/h 14% 0 mm 432.0 W/m2
14:39 29.2 °C -1 °C 1017.5 hPa NNW 11.1 km/h 11.3 km/h 14% 0 mm 404.0 W/m2
15:35 29.1 °C -1.1 °C 1017.5 hPa Calm   9.7 km/h 14% 0 mm 246.0 W/m2
15:40 29 °C -1.2 °C 1017.5 hPa Calm     14% 0 mm 229.0 W/m2
15:46 29 °C -2.2 °C 1017.5 hPa NNW 6.4 km/h 9.7 km/h 13% 0 mm 211.0 W/m2
15:51 28.9 °C -1.3 °C 1017.5 hPa Calm     14% 0 mm 192.0 W/m2
15:57 29 °C -2.2 °C 1017.5 hPa Calm     13% 0 mm 171.0 W/m2
16:03 29.1 °C -2.1 °C 1017.5 hPa NNW 7.9 km/h 9.7 km/h 13% 0 mm 151.0 W/m2
16:05 28.9 °C -2.3 °C 1017.8 hPa Calm   8 km/h 13% 0 mm 128.0 W/m2
16:20 28.9 °C -1.3 °C 1017.8 hPa Calm     14% 0 mm 95.0 W/m2
16:29 29 °C -2.2 °C 1017.8 hPa Calm     13% 0 mm 60.0 W/m2
16:36 28.6 °C -1.5 °C 1017.8 hPa Calm   9.7 km/h 14% 0 mm 35.0 W/m2
16:49 28.2 °C -1.8 °C 1018.2 hPa Calm     14% 0 mm 14.0 W/m2
16:58 27.7 °C -1.3 °C 1018.2 hPa Calm     15% 0 mm 9.0 W/m2
18:03 22.9 °C -2 °C 1018.5 hPa Calm     19% 0 mm 0.0 W/m2
18:08 22.4 °C -1.7 °C 1018.8 hPa Calm     20% 0 mm 0.0 W/m2
18:22 21.8 °C -2.2 °C 1018.8 hPa Calm     20% 0 mm 0.0 W/m2
18:29 21.4 °C -1.8 °C 1018.8 hPa Calm     21% 0 mm 0.0 W/m2
18:47 21.3 °C -1.3 °C 1018.8 hPa Calm     22% 0 mm 0.0 W/m2
18:54 21.3 °C -1.9 °C 1019.2 hPa Calm     21% 0 mm 0.0 W/m2
19:15 20.5 °C -2.6 °C 1019.2 hPa Calm     21% 0 mm 0.0 W/m2
19:25 19.7 °C -2 °C 1019.5 hPa Calm     23% 0 mm 0.0 W/m2
19:41 20.3 °C -2.1 °C 1019.5 hPa Calm     22% 0 mm 0.0 W/m2
20:02 20.8 °C -1.7 °C 1019.5 hPa Calm     22% 0 mm 0.0 W/m2
20:12 20.4 °C -2 °C 1019.5 hPa Calm     22% 0 mm 0.0 W/m2
20:27 20 °C -1.8 °C 1019.5 hPa Calm     23% 0 mm 0.0 W/m2
20:33 19.6 °C -1.5 °C 1019.5 hPa Calm     24% 0 mm 0.0 W/m2
20:43 19.4 °C -1.7 °C 1019.9 hPa Calm     24% 0 mm 0.0 W/m2
20:59 19.1 °C -2 °C 1019.9 hPa Calm     24% 0 mm 0.0 W/m2
21:08 19 °C -2 °C 1019.9 hPa Calm     24% 0 mm 0.0 W/m2
21:18 19.7 °C -1.4 °C 1019.9 hPa Calm   6.4 km/h 24% 0 mm 0.0 W/m2
21:28 19.8 °C -1.9 °C 1019.9 hPa Calm     23% 0 mm 0.0 W/m2
23:14 20.9 °C -2.3 °C 1019.5 hPa NNW 6.4 km/h 8 km/h 21% 0 mm 0.0 W/m2
23:19 20.7 °C -2.4 °C 1019.5 hPa NNW 7.9 km/h 11.3 km/h 21% 0 mm 0.0 W/m2
23:24 20.6 °C -2.5 °C 1019.5 hPa Calm   11.3 km/h 21% 0 mm 0.0 W/m2
23:29 20.6 °C -2.5 °C 1019.5 hPa Calm   9.7 km/h 21% 0 mm 0.0 W/m2
23:39 20.7 °C -2.4 °C 1019.5 hPa NNW 11.1 km/h 14.5 km/h 21% 0 mm 0.0 W/m2
23:44 20.7 °C -2.4 °C 1019.5 hPa NNW 6.4 km/h 11.3 km/h 21% 0 mm 0.0 W/m2
23:49 20.6 °C -2.5 °C 1019.5 hPa NNW 3.2 km/h 11.3 km/h 21% 0 mm 0.0 W/m2
23:54 20.4 °C -2.7 °C 1019.5 hPa NNW 11.1 km/h 11.3 km/h 21% 0 mm 0.0 W/m2
Canyon Roadhouse, Fishriver Canyon, Namibia
Compliments of Weather Underground - 2.25 mb